1852 Hurricane NOT_NAMED (1852232N21293)


IBTrACS version v04r00. Visit IBTrACS website for data access.
Please direct all questions to the IBTrACS Q and A forum

Storm track - Intensity - Wind Radii - Intensity Data - Source Data - All data

Summary Information

Storm ID 1852232N21293
Start Aug 19 00Z
Landfall Aug 26 12Z
Max Intensity 100 kt (Aug 24 00Z), 961 mb (Aug 26 06Z)
End Aug 30 00Z
ATCF IDs AL011852
Track status Best track data.

Storm track plot

Map of storm track

Intensity plots

Map of storm track

Radial wind information

No radial wind information for this storm


Position and Intensity Table

BASIN ISO_TIME_________ NATURE LAT LON WMO WIND WMO PRES USA WIND USA PRES MLC WIND MLC PRES
degrees north degrees east kts mb kts mb kts mb
NA 1852-08-19 00:00:00 TS 20.63 -67.33 60 60 30
NA 03:00:00 TS 20.73 -67.76 60 30
NA 06:00:00 TS 20.83 -68.17 60 60 30
NA 09:00:00 TS 20.93 -68.53 60 32
NA 12:00:00 TS 21.03 -68.90 60 60 35
NA 15:00:00 TS 21.14 -69.32 60 35
NA 18:00:00 TS 21.23 -69.77 60 60 35
NA 21:00:00 TS 21.30 -70.23 65 37
NA 1852-08-20 00:00:00 TS 21.37 -70.73 70 70 40
NA 03:00:00 TS 21.48 -71.33 70 40
NA 06:00:00 TS 21.60 -71.93 70 70 40
NA 09:00:00 TS 21.70 -72.49 70 42
NA 12:00:00 TS 21.80 -73.00 70 70 45
NA 15:00:00 TS 21.90 -73.47 70 47
NA 18:00:00 TS 22.00 -73.90 70 70 50
NA 21:00:00 TS 22.10 -74.31 75 52
NA 1852-08-21 00:00:00 TS 22.20 -74.77 80 80 55
NA 03:00:00 TS 22.26 -75.35 80 57
NA 06:00:00 TS 22.33 -75.97 80 80 60
NA 09:00:00 TS 22.47 -76.51 80 60
NA 12:00:00 TS 22.63 -77.03 80 80 60
NA 15:00:00 TS 22.77 -77.53 80 62
NA 18:00:00 TS 22.90 -78.03 80 80 65
NA 21:00:00 TS 23.03 -78.59 85 67
NA 1852-08-22 00:00:00 TS 23.17 -79.13 90 90 70
NA 03:00:00 TS 23.30 -79.58 90 72
NA 06:00:00 TS 23.43 -80.00 90 90 75
NA 09:00:00 TS 23.56 -80.48 90 77
NA 12:00:00 TS 23.70 -80.97 90 90 80
NA 15:00:00 TS 23.84 -81.42 90 82
NA 18:00:00 TS 24.00 -81.87 90 90 85
NA 21:00:00 TS 24.19 -82.31 90 87
NA 1852-08-23 00:00:00 TS 24.40 -82.73 90 90 90
NA 03:00:00 TS 24.58 -83.14 90 90
NA 06:00:00 TS 24.77 -83.53 90 90 90
NA 09:00:00 TS 24.96 -83.91 90 90
NA 12:00:00 TS 25.17 -84.27 90 90 90
NA 15:00:00 TS 25.41 -84.62 90 90
NA 18:00:00 TS 25.67 -84.97 90 90 90
NA 21:00:00 TS 25.90 -85.31 95 92
NA 1852-08-24 00:00:00 TS 26.13 -85.67 100 100 95
NA 03:00:00 TS 26.38 -86.07 100 95
NA 06:00:00 TS 26.63 -86.47 100 100 95
NA 09:00:00 TS 26.86 -86.85 100 95
NA 12:00:00 TS 27.10 -87.17 100 100 95
NA 15:00:00 TS 27.37 -87.40 100 95
NA 18:00:00 TS 27.63 -87.57 100 100 95
NA 21:00:00 TS 27.86 -87.73 100 97
NA 1852-08-25 00:00:00 TS 28.07 -87.87 100 100 100
NA 03:00:00 TS 28.25 -87.97 100 100
NA 06:00:00 TS 28.43 -88.07 100 100 100
NA 09:00:00 TS 28.63 -88.17 100 100
NA 12:00:00 TS 28.83 -88.27 100 100 100
NA 15:00:00 TS 29.04 -88.35 100 100
NA 18:00:00 TS 29.27 -88.43 100 100 100
NA 21:00:00 TS 29.51 -88.53 100 100
NA 1852-08-26 00:00:00 TS 29.73 -88.60 100 100 100
NA 03:00:00 TS 29.92 -88.62 100 100
NA 06:00:00 TS 30.10 -88.60 100 961 100 961 100
NA 09:00:00 TS 30.27 -88.59 95 100
NA 12:00:00 TS 30.47 -88.53 90 90 100 961
NA 15:00:00 TS 30.70 -88.41 80 87
NA 18:00:00 TS 30.97 -88.20 70 70 75
NA 21:00:00 TS 31.23 -87.91 60 62
NA 1852-08-27 00:00:00 TS 31.50 -87.53 50 50 50
NA 03:00:00 TS 31.77 -87.11 45 45
NA 06:00:00 TS 32.03 -86.60 40 40 40
NA 09:00:00 TS 32.29 -86.01 40 40
NA 12:00:00 TS 32.53 -85.30 40 40 40
NA 15:00:00 TS 32.77 -84.48 40 40
NA 18:00:00 TS 33.00 -83.57 40 40 40
NA 21:00:00 TS 33.24 -82.46 40 40
NA 1852-08-28 00:00:00 TS 33.44 -81.20 40 40 40
NA 03:00:00 TS 33.63 -79.78 40
NA 06:00:00 TS 33.80 -78.20 40 40
NA 09:00:00 TS 33.89 -77.06 40
NA 12:00:00 TS 34.00 -76.00 40 40
NA 15:00:00 TS 34.15 -75.04 40
NA 18:00:00 TS 34.40 -74.20 40 40
NA 21:00:00 TS 34.74 -73.44 45
NA 1852-08-29 00:00:00 TS 35.20 -72.80 50 50
NA 03:00:00 TS 35.74 -72.27 50
NA 06:00:00 TS 36.40 -71.80 50 50
NA 09:00:00 TS 37.17 -71.31 50
NA 12:00:00 TS 38.00 -70.80 50 50
NA 15:00:00 TS 38.81 -70.24 50
NA 18:00:00 TS 39.60 -69.60 50 50
NA 21:00:00 TS 40.32 -68.84 50
NA 1852-08-30 00:00:00 TS 41.00 -68.00 50 50

Source Information

Agency Information
USA hurdat2-1851-2019-042820.txt:Line=105:UNNAMED
TOKYO
CMA
HKO
NEWDELHI
REUNION
BOM
NADI
WELLINGTON
DS824
TD9636
TD9635
NEUMANN
MLC

All available IBTrACS Data

SEASON BASIN SUBBASIN ISO_TIME_________ NATURE LAT LON WMO WIND WMO PRES WMO AGENCY DIST2LAND LANDFALL IFLAG USA AGENCY USA ATCF_ID USA LAT USA LON USA RECORD USA STATUS USA WIND USA PRES USA SSHS MLC LAT MLC LON MLC CLASS MLC WIND MLC PRES STORM SPEED STORM DIR
Year degrees north degrees east kts mb km km degrees north degrees east kts mb 1 degrees north degrees east kts mb kts degrees
1852 NA NA 1852-08-19 00:00:00 TS 20.63 -67.33 60 hurdat_atl 243 229 O____________O hurdat_atl AL011852 20.50 -67.10 TS 60 0 20.90 -67.80 TD 30 8 284
1852 NA NA 03:00:00 TS 20.73 -67.76 221 209 P____________P AL011852 20.60 -67.56 TS 60 0 21.00 -68.17 TD 30 8 284
1852 NA NA 06:00:00 TS 20.83 -68.17 60 hurdat_atl 203 197 O____________O hurdat_atl AL011852 20.70 -68.00 TS 60 0 21.10 -68.50 TD 30 7 286
1852 NA NA 09:00:00 TS 20.93 -68.53 197 193 P____________P AL011852 20.80 -68.41 TS 60 0 21.20 -68.78 TD 32 7 286
1852 NA NA 12:00:00 TS 21.03 -68.90 60 hurdat_atl 194 182 O____________O hurdat_atl AL011852 20.90 -68.80 TS 60 0 21.30 -69.10 TS 35 8 286
1852 NA NA 15:00:00 TS 21.14 -69.32 182 179 P____________P AL011852 21.01 -69.19 TS 60 0 21.40 -69.58 TS 35 8 284
1852 NA NA 18:00:00 TS 21.23 -69.77 60 hurdat_atl 177 172 O____________O hurdat_atl AL011852 21.10 -69.60 TS 60 0 21.50 -70.10 TS 35 9 281
1852 NA NA 21:00:00 TS 21.30 -70.23 172 167 P____________P AL011852 21.14 -70.06 TS 65 1 21.61 -70.55 TS 37 9 278
1852 NA NA 1852-08-20 00:00:00 TS 21.37 -70.73 70 hurdat_atl 178 178 O____________O hurdat_atl AL011852 21.20 -70.60 HU 70 1 21.70 -71.00 TS 40 10 280
1852 NA NA 03:00:00 TS 21.48 -71.33 179 122 P____________P AL011852 21.34 -71.24 HU 70 1 21.75 -71.49 TS 40 11 282
1852 NA NA 06:00:00 TS 21.60 -71.93 70 hurdat_atl 122 76 O____________O hurdat_atl AL011852 21.50 -71.90 HU 70 1 21.80 -72.00 TS 40 11 282
1852 NA NA 09:00:00 TS 21.70 -72.49 76 63 P____________P AL011852 21.61 -72.47 HU 70 1 21.89 -72.52 TS 42 10 281
1852 NA NA 12:00:00 TS 21.80 -73.00 70 hurdat_atl 67 67 O____________O hurdat_atl AL011852 21.70 -73.00 HU 70 1 22.00 -73.00 TS 45 9 282
1852 NA NA 15:00:00 TS 21.90 -73.47 84 84 P____________P AL011852 21.80 -73.52 HU 70 1 22.10 -73.37 TS 47 9 283
1852 NA NA 18:00:00 TS 22.00 -73.90 70 hurdat_atl 102 102 O____________O hurdat_atl AL011852 21.90 -74.00 HU 70 1 22.20 -73.70 TS 50 8 285
1852 NA NA 21:00:00 TS 22.10 -74.31 127 127 P____________P AL011852 22.01 -74.44 HU 75 1 22.30 -74.06 TS 52 8 284
1852 NA NA 1852-08-21 00:00:00 TS 22.20 -74.77 80 hurdat_atl 157 140 O____________O hurdat_atl AL011852 22.10 -74.90 HU 80 1 22.40 -74.50 TS 55 10 279
1852 NA NA 03:00:00 TS 22.26 -75.35 146 126 P____________P AL011852 22.14 -75.49 HU 80 1 22.51 -75.07 TS 57 11 277
1852 NA NA 06:00:00 TS 22.33 -75.97 80 hurdat_atl 124 106 O____________O hurdat_atl AL011852 22.20 -76.10 HU 80 1 22.60 -75.70 TS 60 11 281
1852 NA NA 09:00:00 TS 22.47 -76.51 108 98 P____________P AL011852 22.38 -76.61 HU 80 1 22.65 -76.32 TS 60 10 287
1852 NA NA 12:00:00 TS 22.63 -77.03 80 hurdat_atl 101 98 O____________O hurdat_atl AL011852 22.60 -77.10 HU 80 1 22.70 -76.90 TS 60 10 288
1852 NA NA 15:00:00 TS 22.77 -77.53 103 78 P____________P AL011852 22.76 -77.59 HU 80 1 22.79 -77.42 TS 62 10 286
1852 NA NA 18:00:00 TS 22.90 -78.03 80 hurdat_atl 78 70 O____________O hurdat_atl AL011852 22.90 -78.10 HU 80 1 22.90 -77.90 HU 65 10 285
1852 NA NA 21:00:00 TS 23.03 -78.59 78 75 P____________P AL011852 23.05 -78.71 HU 85 2 23.00 -78.35 HU 67 10 285
1852 NA NA 1852-08-22 00:00:00 TS 23.17 -79.13 90 hurdat_atl 75 59 O____________O hurdat_atl AL011852 23.20 -79.30 HU 90 2 23.10 -78.80 HU 70 9 286
1852 NA NA 03:00:00 TS 23.30 -79.58 60 54 P____________P AL011852 23.35 -79.72 HU 90 2 23.20 -79.30 HU 72 8 289
1852 NA NA 06:00:00 TS 23.43 -80.00 90 hurdat_atl 55 55 O____________O hurdat_atl AL011852 23.50 -80.10 HU 90 2 23.30 -79.80 HU 75 9 288
1852 NA NA 09:00:00 TS 23.56 -80.48 67 67 P____________P AL011852 23.64 -80.59 HU 90 2 23.41 -80.27 HU 77 9 287
1852 NA NA 12:00:00 TS 23.70 -80.97 90 hurdat_atl 73 70 O____________O hurdat_atl AL011852 23.80 -81.10 HU 90 2 23.50 -80.70 HU 80 9 288
1852 NA NA 15:00:00 TS 23.84 -81.42 78 78 P____________P AL011852 23.98 -81.60 HU 90 2 23.55 -81.07 HU 82 9 290
1852 NA NA 18:00:00 TS 24.00 -81.87 90 hurdat_atl 100 100 O____________O hurdat_atl AL011852 24.20 -82.10 HU 90 2 23.60 -81.40 HU 85 9 294
1852 NA NA 21:00:00 TS 24.19 -82.31 122 122 P____________P AL011852 24.44 -82.62 HU 90 2 23.70 -81.69 HU 87 9 297
1852 NA NA 1852-08-23 00:00:00 TS 24.40 -82.73 90 hurdat_atl 146 146 O____________O hurdat_atl AL011852 24.70 -83.10 HU 90 2 23.80 -82.00 HU 90 9 297
1852 NA GM 03:00:00 TS 24.58 -83.14 178 178 P____________P AL011852 24.95 -83.52 HU 90 2 23.85 -82.39 HU 90 8 297
1852 NA GM 06:00:00 TS 24.77 -83.53 90 hurdat_atl 212 212 O____________O hurdat_atl AL011852 25.20 -83.90 HU 90 2 23.90 -82.80 HU 90 8 298
1852 NA GM 09:00:00 TS 24.96 -83.91 240 240 P____________P AL011852 25.45 -84.26 HU 90 2 23.97 -83.21 HU 90 8 301
1852 NA GM 12:00:00 TS 25.17 -84.27 90 hurdat_atl 268 268 O____________O hurdat_atl AL011852 25.70 -84.60 HU 90 2 24.10 -83.60 HU 90 8 305
1852 NA GM 15:00:00 TS 25.41 -84.62 277 277 P____________P AL011852 25.95 -84.95 HU 90 2 24.33 -83.96 HU 90 8 308
1852 NA GM 18:00:00 TS 25.67 -84.97 90 hurdat_atl 295 295 O____________O hurdat_atl AL011852 26.20 -85.30 HU 90 2 24.60 -84.30 HU 90 8 308
1852 NA GM 21:00:00 TS 25.90 -85.31 310 310 P____________P AL011852 26.45 -85.66 HU 95 2 24.80 -84.61 HU 92 8 307
1852 NA GM 1852-08-24 00:00:00 TS 26.13 -85.67 100 hurdat_atl 335 331 O____________O hurdat_atl AL011852 26.70 -86.00 HU 100 3 25.00 -85.00 HU 95 8 305
1852 NA GM 03:00:00 TS 26.38 -86.07 357 357 P____________P AL011852 26.95 -86.32 HU 100 3 25.25 -85.57 HU 95 9 305
1852 NA GM 06:00:00 TS 26.63 -86.47 100 hurdat_atl 362 325 O____________O hurdat_atl AL011852 27.20 -86.60 HU 100 3 25.50 -86.20 HU 95 8 305
1852 NA GM 09:00:00 TS 26.86 -86.85 325 282 P____________P AL011852 27.45 -86.87 HU 100 3 25.69 -86.81 HU 95 8 307
1852 NA GM 12:00:00 TS 27.10 -87.17 100 hurdat_atl 282 244 O____________O hurdat_atl AL011852 27.70 -87.10 HU 100 3 25.90 -87.30 HU 95 7 316
1852 NA GM 15:00:00 TS 27.37 -87.40 244 214 P____________P AL011852 27.96 -87.32 HU 100 3 26.19 -87.56 HU 95 6 326
1852 NA GM 18:00:00 TS 27.63 -87.57 100 hurdat_atl 214 183 O____________O hurdat_atl AL011852 28.20 -87.50 HU 100 3 26.50 -87.70 HU 95 6 329
1852 NA GM 21:00:00 TS 27.86 -87.73 183 154 P____________P AL011852 28.42 -87.67 HU 100 3 26.74 -87.87 HU 97 5 328
1852 NA GM 1852-08-25 00:00:00 TS 28.07 -87.87 100 hurdat_atl 154 139 O____________O hurdat_atl AL011852 28.60 -87.80 HU 100 3 27.00 -88.00 MH 100 4 331
1852 NA GM 03:00:00 TS 28.25 -87.97 132 117 P____________P AL011852 28.71 -87.91 HU 100 3 27.34 -88.11 MH 100 4 334
1852 NA GM 06:00:00 TS 28.43 -88.07 100 hurdat_atl 117 95 O____________O hurdat_atl AL011852 28.80 -88.00 HU 100 3 27.70 -88.20 MH 100 4 335
1852 NA GM 09:00:00 TS 28.63 -88.17 95 75 P____________P AL011852 28.94 -88.10 HU 100 3 28.00 -88.31 MH 100 4 336
1852 NA GM 12:00:00 TS 28.83 -88.27 100 hurdat_atl 75 68 O____________O hurdat_atl AL011852 29.10 -88.20 HU 100 3 28.30 -88.40 MH 100 4 339
1852 NA GM 15:00:00 TS 29.04 -88.35 59 58 P____________P AL011852 29.24 -88.30 HU 100 3 28.65 -88.46 MH 100 5 341
1852 NA GM 18:00:00 TS 29.27 -88.43 100 hurdat_atl 62 53 O____________O hurdat_atl AL011852 29.40 -88.40 HU 100 3 29.00 -88.50 MH 100 5 342
1852 NA GM 21:00:00 TS 29.51 -88.53 65 65 P____________P AL011852 29.59 -88.51 HU 100 3 29.33 -88.56 MH 100 5 343
1852 NA GM 1852-08-26 00:00:00 TS 29.73 -88.60 100 hurdat_atl 67 45 O____________O hurdat_atl AL011852 29.80 -88.60 HU 100 3 29.60 -88.60 MH 100 4 350
1852 NA GM 03:00:00 TS 29.92 -88.62 45 24 P____________P AL011852 30.00 -88.62 HU 100 3 29.77 -88.61 MH 100 4 2
1852 NA GM 06:00:00 TS 30.10 -88.60 100 961 hurdat_atl 24 9 O____________O hurdat_atl AL011852 30.20 -88.60 L HU 100 961 3 29.90 -88.60 MH 100 4 2
1852 NA GM 09:00:00 TS 30.27 -88.59 9 0 P____________P AL011852 30.38 -88.58 HU 95 2 30.05 -88.61 MH 100 4 9
1852 NA NA 12:00:00 TS 30.47 -88.53 90 hurdat_atl 0 0 O____________O hurdat_atl AL011852 30.60 -88.50 HU 90 2 30.20 -88.60 MH 100 961 5 20
1852 NA NA 15:00:00 TS 30.70 -88.41 0 0 P____________P AL011852 30.88 -88.34 HU 80 1 30.34 -88.54 MH 87 6 30
1852 NA NA 18:00:00 TS 30.97 -88.20 70 hurdat_atl 0 0 O____________O hurdat_atl AL011852 31.20 -88.10 HU 70 1 30.50 -88.40 HU 75 7 39
1852 NA NA 21:00:00 TS 31.23 -87.91 0 0 P____________P AL011852 31.51 -87.80 HU 60 0 30.68 -88.13 HU 62 8 47
1852 NA NA 1852-08-27 00:00:00 TS 31.50 -87.53 50 hurdat_atl 0 0 O____________O hurdat_atl AL011852 31.80 -87.40 TS 50 0 30.90 -87.80 TS 50 9 52
1852 NA NA 03:00:00 TS 31.77 -87.11 0 0 P____________P AL011852 32.06 -86.91 TS 45 0 31.19 -87.52 TS 45 10 56
1852 NA NA 06:00:00 TS 32.03 -86.60 40 hurdat_atl 0 0 O____________O hurdat_atl AL011852 32.30 -86.30 TS 40 0 31.50 -87.20 TS 40 11 61
1852 NA NA 09:00:00 TS 32.29 -86.01 0 0 P____________P AL011852 32.56 -85.62 TS 40 0 31.75 -86.79 TS 40 12 66
1852 NA NA 12:00:00 TS 32.53 -85.30 40 hurdat_atl 0 0 O____________O hurdat_atl AL011852 32.80 -84.80 TS 40 0 32.00 -86.30 TS 40 14 69
1852 NA NA 15:00:00 TS 32.77 -84.48 0 0 P____________P AL011852 33.01 -83.86 TS 40 0 32.29 -85.72 TS 40 15 72
1852 NA NA 18:00:00 TS 33.00 -83.57 40 hurdat_atl 0 0 O____________O hurdat_atl AL011852 33.20 -82.80 TS 40 0 32.60 -85.10 TS 40 18 75
1852 NA NA 21:00:00 TS 33.24 -82.46 0 0 P____________P AL011852 33.36 -81.67 TS 40 0 32.90 -84.53 TS 40 20 77
1852 NA NA 1852-08-28 00:00:00 TS 33.44 -81.20 40 hurdat_atl 0 0 O____________O hurdat_atl AL011852 33.50 -80.50 TS 40 0 33.20 -84.00 TS 40 23 80
1852 NA NA 03:00:00 TS 33.63 -79.78 0 0 P_____________ AL011852 33.66 -79.34 TS 40 0 TS 25 82
1852 NA NA 06:00:00 TS 33.80 -78.20 40 hurdat_atl 11 11 O_____________ hurdat_atl AL011852 33.80 -78.20 TS 40 0 23 83
1852 NA NA 09:00:00 TS 33.89 -77.06 70 70 P_____________ AL011852 33.89 -77.06 TS 40 0 18 84
1852 NA NA 12:00:00 TS 34.00 -76.00 40 hurdat_atl 90 90 O_____________ hurdat_atl AL011852 34.00 -76.00 TS 40 0 17 81
1852 NA NA 15:00:00 TS 34.15 -75.04 142 142 P_____________ AL011852 34.15 -75.04 TS 40 0 15 75
1852 NA NA 18:00:00 TS 34.40 -74.20 40 hurdat_atl 190 190 O_____________ hurdat_atl AL011852 34.40 -74.20 TS 40 0 14 66
1852 NA NA 21:00:00 TS 34.74 -73.44 226 220 P_____________ AL011852 34.74 -73.44 TS 45 0 14 55
1852 NA NA 1852-08-29 00:00:00 TS 35.20 -72.80 50 hurdat_atl 252 252 O_____________ hurdat_atl AL011852 35.20 -72.80 TS 50 0 14 44
1852 NA NA 03:00:00 TS 35.74 -72.27 288 288 P_____________ AL011852 35.74 -72.27 TS 50 0 15 34
1852 NA NA 06:00:00 TS 36.40 -71.80 50 hurdat_atl 338 338 O_____________ hurdat_atl AL011852 36.40 -71.80 TS 50 0 16 28
1852 NA NA 09:00:00 TS 37.17 -71.31 354 343 P_____________ AL011852 37.17 -71.31 TS 50 0 18 26
1852 NA NA 12:00:00 TS 38.00 -70.80 50 hurdat_atl 345 296 O_____________ hurdat_atl AL011852 38.00 -70.80 TS 50 0 19 27
1852 NA NA 15:00:00 TS 38.81 -70.24 302 230 P_____________ AL011852 38.81 -70.24 TS 50 0 19 30
1852 NA NA 18:00:00 TS 39.60 -69.60 50 hurdat_atl 230 180 O_____________ hurdat_atl AL011852 39.60 -69.60 TS 50 0 19 36
1852 NA NA 21:00:00 TS 40.32 -68.84 185 169 P_____________ AL011852 40.32 -68.84 TS 50 0 19 41
1852 NA NA 1852-08-30 00:00:00 TS 41.00 -68.00 50 hurdat_atl 183 O_____________ hurdat_atl AL011852 41.00 -68.00 TS 50 0 19 43